Terminal Aerodrome Forecast
Issued by NWS Flagstaff, AZ

Home | Current Version | Previous Version | Text Only | Print | Product List | Glossary On
Versions: 1 2 3 4 5 6 7 8 9 10 11 12 13
104
FTUS45 KFGZ 251137
TAFINW
TAF
KINW 251137Z 2512/2612 VRB06KT P6SM SKC
     FM251930 23014G24KT P6SM SCT200
     FM260200 22010KT P6SM SCT120 BKN200=

USA.gov is the U.S. government's official web portal to all federal, state and local government web resources and services.